Time;durP1;ratioP1;P1;durP2;ratioP2;P2;SDS_P1;SDS_P2;PMS_P1;PMS_P2;Temp;Humidity;BMP_temperature;BMP_pressure;BME280_temperature;BME280_humidity;BME280_pressure;Samples;Min_cycle;Max_cycle;Signal;HPM_P1;HPM_P2
2022/07/02 00:00:22;;;;;;;0.50;0.50;;;15.20;99.90;;;;;;5059122;28;20299;-62
2022/07/02 00:02:52;;;;;;;0.68;0.68;;;15.20;99.90;;;;;;5057645;28;20199;-65
2022/07/02 00:05:22;;;;;;;0.67;0.67;;;15.10;99.90;;;;;;5058385;28;20766;-63
2022/07/02 00:07:50;;;;;;;0.60;0.60;;;15.10;99.90;;;;;;5058239;28;20227;-62
2022/07/02 00:10:18;;;;;;;0.67;0.67;;;15.10;99.90;;;;;;5063833;28;20673;-62
2022/07/02 00:12:47;;;;;;;0.45;0.45;;;15.00;99.90;;;;;;5067165;28;20215;-62
2022/07/02 00:15:15;;;;;;;0.70;0.70;;;15.00;99.90;;;;;;5066729;28;20223;-62
2022/07/02 00:17:42;;;;;;;0.50;0.50;;;15.00;99.90;;;;;;5060292;28;20291;-62
2022/07/02 00:20:11;;;;;;;0.50;0.50;;;14.90;99.90;;;;;;5067123;28;20204;-62
2022/07/02 00:22:40;;;;;;;0.97;0.60;;;14.90;99.90;;;;;;5066986;28;20214;-64
2022/07/02 00:25:07;;;;;;;0.37;0.37;;;14.80;99.90;;;;;;5063863;28;20306;-63
2022/07/02 00:27:37;;;;;;;0.63;0.60;;;14.80;99.90;;;;;;5055838;28;20237;-64
2022/07/02 00:30:07;;;;;;;0.43;0.43;;;14.80;99.90;;;;;;5061738;28;20226;-63
2022/07/02 00:32:36;;;;;;;0.40;0.40;;;14.80;99.90;;;;;;5060162;28;20307;-64
2022/07/02 00:35:06;;;;;;;0.50;0.50;;;14.70;99.90;;;;;;5061390;28;20614;-63
2022/07/02 00:37:33;;;;;;;0.68;0.68;;;14.70;99.90;;;;;;5058616;28;20268;-62
2022/07/02 00:40:00;;;;;;;0.50;0.40;;;14.80;99.90;;;;;;5058680;28;20196;-64
2022/07/02 00:42:28;;;;;;;0.55;0.55;;;14.70;99.90;;;;;;5057747;28;20313;-65
2022/07/02 00:44:56;;;;;;;0.70;0.70;;;14.60;99.90;;;;;;5058566;28;20224;-62
2022/07/02 00:47:26;;;;;;;0.70;0.70;;;14.60;99.90;;;;;;5058028;28;20311;-61
2022/07/02 00:49:53;;;;;;;0.70;0.70;;;14.50;99.90;;;;;;5064937;28;20199;-61
2022/07/02 00:52:20;;;;;;;0.60;0.60;;;14.50;99.90;;;;;;5066878;28;20657;-63
2022/07/02 00:54:47;;;;;;;0.40;0.40;;;14.50;99.90;;;;;;5071053;28;20289;-63
2022/07/02 00:57:14;;;;;;;0.60;0.60;;;14.50;99.90;;;;;;5070801;28;20203;-63
2022/07/02 00:59:43;;;;;;;0.37;0.37;;;14.40;99.90;;;;;;5071167;28;20665;-62
2022/07/02 01:02:10;;;;;;;0.60;0.60;;;14.40;99.90;;;;;;5071446;28;20742;-63
2022/07/02 01:04:41;;;;;;;0.67;0.67;;;14.40;99.90;;;;;;5071257;28;20219;-63
2022/07/02 01:07:09;;;;;;;0.40;0.40;;;14.40;99.90;;;;;;5069275;28;20302;-63
2022/07/02 01:12:24;;;;;;;0.50;0.50;;;14.40;99.90;;;;;;5074255;28;20249;-63
2022/07/02 01:14:51;;;;;;;0.40;0.40;;;14.40;99.90;;;;;;5075502;28;20599;-62
2022/07/02 01:17:19;;;;;;;0.60;0.60;;;14.40;99.90;;;;;;5074065;28;20294;-63
2022/07/02 01:19:48;;;;;;;0.43;0.43;;;14.40;99.90;;;;;;5074845;28;20203;-63
2022/07/02 01:22:18;;;;;;;0.50;0.50;;;14.30;99.90;;;;;;5075279;28;20394;-62
2022/07/02 01:24:47;;;;;;;0.73;0.73;;;14.40;99.90;;;;;;5075149;28;20223;-62
2022/07/02 01:27:13;;;;;;;1.03;0.70;;;14.30;99.90;;;;;;5074600;28;20315;-63
2022/07/02 01:29:41;;;;;;;0.50;0.50;;;14.30;99.90;;;;;;5075409;28;20226;-63
2022/07/02 01:32:09;;;;;;;0.47;0.47;;;14.30;99.90;;;;;;5075436;28;20234;-63
2022/07/02 01:34:37;;;;;;;0.50;0.50;;;14.30;99.90;;;;;;5074947;28;20258;-63
2022/07/02 01:37:07;;;;;;;0.60;0.60;;;14.30;99.90;;;;;;5075024;28;20204;-63
2022/07/02 01:39:36;;;;;;;0.70;0.70;;;14.30;99.90;;;;;;5074097;28;20279;-64
2022/07/02 01:42:02;;;;;;;1.07;0.80;;;14.20;99.90;;;;;;5075642;28;20203;-63
2022/07/02 01:44:29;;;;;;;0.60;0.60;;;14.30;99.90;;;;;;5068747;28;20310;-64
2022/07/02 01:46:56;;;;;;;0.60;0.60;;;14.30;99.90;;;;;;5073073;28;20219;-64
2022/07/02 01:49:23;;;;;;;0.63;0.63;;;14.30;99.90;;;;;;5072114;28;20570;-63
2022/07/02 01:51:50;;;;;;;0.63;0.60;;;14.30;99.90;;;;;;5070714;28;20230;-63
2022/07/02 01:54:17;;;;;;;1.58;0.77;;;14.20;99.90;;;;;;5074284;28;20254;-63
2022/07/02 01:56:45;;;;;;;0.80;0.47;;;14.20;99.90;;;;;;5074609;28;20274;-63
2022/07/02 01:59:13;;;;;;;0.40;0.40;;;14.20;99.90;;;;;;5073948;28;20278;-62
2022/07/02 02:01:40;;;;;;;0.70;0.70;;;14.20;99.90;;;;;;5074319;28;20199;-63
2022/07/02 02:04:07;;;;;;;0.40;0.40;;;14.20;99.90;;;;;;5073694;28;20238;-62
2022/07/02 02:06:34;;;;;;;0.53;0.53;;;14.20;99.90;;;;;;5071836;28;20243;-62
2022/07/02 02:09:01;;;;;;;0.90;0.73;;;14.20;99.90;;;;;;5074867;28;20294;-64
2022/07/02 02:11:28;;;;;;;0.60;0.60;;;14.20;99.90;;;;;;5074281;28;20199;-63
2022/07/02 02:13:58;;;;;;;0.50;0.50;;;14.20;99.90;;;;;;5074458;28;20266;-63
2022/07/02 02:16:25;;;;;;;0.63;0.63;;;14.10;99.90;;;;;;5074936;28;20203;-61
2022/07/02 02:18:52;;;;;;;0.40;0.40;;;14.10;99.90;;;;;;5073702;28;20234;-62
2022/07/02 02:21:19;;;;;;;0.43;0.43;;;14.10;99.90;;;;;;5070592;28;20265;-63
2022/07/02 02:23:46;;;;;;;0.55;0.55;;;14.00;99.90;;;;;;5074776;28;20226;-63
2022/07/02 02:26:12;;;;;;;0.70;0.70;;;13.90;99.90;;;;;;5075382;28;20241;-63
2022/07/02 02:28:39;;;;;;;0.70;0.70;;;13.90;99.90;;;;;;5073005;28;20292;-63
2022/07/02 02:31:08;;;;;;;0.50;0.50;;;13.80;99.90;;;;;;5074549;28;20235;-64
2022/07/02 02:33:35;;;;;;;0.50;0.50;;;13.80;99.90;;;;;;5069614;28;20700;-63
2022/07/02 02:36:02;;;;;;;0.60;0.60;;;13.80;99.90;;;;;;5073118;28;20842;-63
2022/07/02 02:38:29;;;;;;;0.53;0.53;;;13.80;99.90;;;;;;5074086;28;20237;-62
2022/07/02 02:40:56;;;;;;;0.60;0.60;;;13.80;99.90;;;;;;5074257;28;20282;-63
2022/07/02 02:43:23;;;;;;;0.37;0.37;;;13.80;99.90;;;;;;5074191;28;20286;-64
2022/07/02 02:45:50;;;;;;;0.60;0.60;;;13.80;99.90;;;;;;5075331;28;20223;-63
2022/07/02 02:48:18;;;;;;;0.67;0.67;;;13.80;99.90;;;;;;5073820;28;20306;-63
2022/07/02 02:50:45;;;;;;;0.50;0.50;;;13.80;99.90;;;;;;5073687;28;20239;-64
2022/07/02 02:53:11;;;;;;;0.50;0.50;;;13.80;99.90;;;;;;5074641;28;20286;-63
2022/07/02 02:55:38;;;;;;;0.73;0.73;;;13.80;99.90;;;;;;5073308;28;20262;-63
2022/07/02 02:58:05;;;;;;;0.40;0.40;;;13.80;99.90;;;;;;5070825;28;20246;-62
2022/07/02 03:00:32;;;;;;;0.67;0.67;;;13.80;99.90;;;;;;5068309;28;20294;-63
2022/07/02 03:02:59;;;;;;;0.50;0.50;;;13.80;99.90;;;;;;5073171;28;20601;-62
2022/07/02 03:05:27;;;;;;;0.43;0.43;;;13.80;99.90;;;;;;5072032;28;20218;-62
2022/07/02 03:07:54;;;;;;;0.60;0.60;;;13.80;99.90;;;;;;5073501;28;20257;-62
2022/07/02 03:10:21;;;;;;;0.60;0.60;;;13.80;99.90;;;;;;5074492;28;20238;-63
2022/07/02 03:12:47;;;;;;;0.60;0.60;;;13.80;99.90;;;;;;5074506;28;20217;-63
2022/07/02 03:15:14;;;;;;;0.53;0.53;;;13.80;99.90;;;;;;5074066;28;20223;-63
2022/07/02 03:17:42;;;;;;;0.97;0.50;;;13.70;99.90;;;;;;5071086;28;20760;-62
2022/07/02 03:20:10;;;;;;;0.60;0.60;;;13.70;99.90;;;;;;5074095;28;20207;-64
2022/07/02 03:22:38;;;;;;;0.57;0.57;;;13.70;99.90;;;;;;5073114;28;20658;-63
2022/07/02 03:25:06;;;;;;;0.57;0.57;;;13.60;99.90;;;;;;5073308;28;20845;-63
2022/07/02 03:27:32;;;;;;;0.50;0.50;;;13.70;99.90;;;;;;5067760;28;20269;-63
2022/07/02 03:29:59;;;;;;;0.40;0.40;;;13.60;99.90;;;;;;5072401;28;20199;-63
2022/07/02 03:32:28;;;;;;;0.50;0.50;;;13.60;99.90;;;;;;5074033;28;20230;-63
2022/07/02 03:34:56;;;;;;;0.30;0.30;;;13.50;99.90;;;;;;5071193;28;20239;-65
2022/07/02 03:37:26;;;;;;;0.47;0.47;;;13.50;99.90;;;;;;5072717;28;20262;-63
2022/07/02 03:39:55;;;;;;;0.50;0.50;;;13.50;99.90;;;;;;5073314;28;20207;-62
2022/07/02 03:42:22;;;;;;;0.50;0.50;;;13.50;99.90;;;;;;5073628;28;20294;-63
2022/07/02 03:44:49;;;;;;;0.70;0.70;;;13.60;99.90;;;;;;5073493;28;20350;-63
2022/07/02 03:47:16;;;;;;;0.50;0.50;;;13.60;99.90;;;;;;5073392;28;20247;-62
2022/07/02 03:49:43;;;;;;;0.87;0.60;;;13.60;99.90;;;;;;5074180;28;20291;-64
2022/07/02 03:52:10;;;;;;;0.50;0.50;;;13.50;99.90;;;;;;5074551;28;20250;-61
2022/07/02 03:54:37;;;;;;;0.60;0.60;;;13.50;99.90;;;;;;5072708;28;20257;-63
2022/07/02 03:57:06;;;;;;;0.83;0.60;;;13.60;99.90;;;;;;5073998;28;20755;-63
2022/07/02 03:59:33;;;;;;;0.53;0.53;;;13.60;99.90;;;;;;5073895;28;20282;-64
2022/07/02 04:02:00;;;;;;;0.40;0.40;;;13.60;99.90;;;;;;5073453;28;20366;-63
2022/07/02 04:04:27;;;;;;;0.60;0.60;;;13.60;99.90;;;;;;5072379;28;20225;-63
2022/07/02 04:06:53;;;;;;;0.50;0.50;;;13.60;99.90;;;;;;5072662;28;20211;-64
2022/07/02 04:09:20;;;;;;;0.60;0.60;;;13.60;99.90;;;;;;5072765;28;20209;-63
2022/07/02 04:11:47;;;;;;;0.60;0.60;;;13.60;99.90;;;;;;5073919;28;20199;-63
2022/07/02 04:14:15;;;;;;;0.83;0.60;;;13.50;99.90;;;;;;5073327;28;20302;-63
2022/07/02 04:16:42;;;;;;;0.73;0.60;;;13.60;99.90;;;;;;5073317;28;20239;-64
2022/07/02 04:19:09;;;;;;;0.60;0.60;;;13.50;99.90;;;;;;5072968;28;20286;-62
2022/07/02 04:21:36;;;;;;;0.50;0.50;;;13.60;99.90;;;;;;5074041;28;20211;-62
2022/07/02 04:24:03;;;;;;;0.50;0.50;;;13.50;99.90;;;;;;5074258;28;20302;-63
2022/07/02 04:26:30;;;;;;;0.50;0.50;;;13.50;99.90;;;;;;5075000;28;20207;-62
2022/07/02 04:28:58;;;;;;;0.70;0.70;;;13.50;99.90;;;;;;5071203;28;20298;-63
2022/07/02 04:31:26;;;;;;;0.50;0.50;;;13.60;99.90;;;;;;5073568;28;20239;-63
2022/07/02 04:33:53;;;;;;;0.67;0.67;;;13.50;99.90;;;;;;5073393;28;20209;-63
2022/07/02 04:36:20;;;;;;;0.60;0.60;;;13.50;99.90;;;;;;5074001;28;20728;-62
2022/07/02 04:38:46;;;;;;;1.23;0.73;;;13.50;99.90;;;;;;5076239;28;20677;-62
2022/07/02 04:41:13;;;;;;;0.60;0.60;;;13.50;99.90;;;;;;5075724;28;20681;-62
2022/07/02 04:43:40;;;;;;;0.87;0.60;;;13.60;99.90;;;;;;5073423;28;20290;-61
2022/07/02 04:46:07;;;;;;;0.50;0.50;;;13.60;99.90;;;;;;5076802;28;20309;-62
2022/07/02 04:48:35;;;;;;;0.53;0.53;;;13.70;99.90;;;;;;5076328;28;20258;-63
2022/07/02 04:51:02;;;;;;;0.57;0.57;;;13.70;99.90;;;;;;5073824;28;20253;-63
2022/07/02 04:53:29;;;;;;;0.60;0.60;;;13.80;99.90;;;;;;5076235;28;20719;-63
2022/07/02 04:55:56;;;;;;;0.70;0.70;;;13.80;99.90;;;;;;5076476;28;20231;-63
2022/07/02 04:58:23;;;;;;;0.60;0.60;;;13.90;99.90;;;;;;5075553;28;20282;-63
2022/07/02 05:00:51;;;;;;;0.60;0.60;;;13.90;99.90;;;;;;5073373;28;20318;-63
2022/07/02 05:03:18;;;;;;;0.60;0.60;;;14.00;99.90;;;;;;5077052;28;20211;-62
2022/07/02 05:05:46;;;;;;;0.50;0.50;;;14.10;99.90;;;;;;5075618;28;20245;-62
2022/07/02 05:08:13;;;;;;;0.40;0.40;;;14.30;99.90;;;;;;5075257;28;20254;-63
2022/07/02 05:10:40;;;;;;;0.50;0.50;;;14.30;99.90;;;;;;5077124;28;20264;-64
2022/07/02 05:13:06;;;;;;;0.57;0.57;;;14.60;99.90;;;;;;5077160;28;20196;-63
2022/07/02 05:15:33;;;;;;;0.60;0.60;;;14.80;99.90;;;;;;5076142;28;20227;-63
2022/07/02 05:18:00;;;;;;;0.70;0.70;;;15.00;99.90;;;;;;5076044;28;20200;-62
2022/07/02 05:20:28;;;;;;;0.50;0.50;;;15.10;99.90;;;;;;5077649;28;20231;-62
2022/07/02 05:22:56;;;;;;;0.60;0.60;;;15.30;99.90;;;;;;5076922;28;20300;-61
2022/07/02 05:25:23;;;;;;;0.50;0.50;;;15.50;99.90;;;;;;5077326;28;20595;-63
2022/07/02 05:27:50;;;;;;;1.40;0.60;;;15.70;99.90;;;;;;5074809;28;20321;-63
2022/07/02 05:30:17;;;;;;;0.80;0.80;;;15.90;99.90;;;;;;5076106;28;20207;-62
2022/07/02 05:32:44;;;;;;;0.63;0.63;;;16.10;99.90;;;;;;5076135;28;20286;-64
2022/07/02 05:35:11;;;;;;;0.47;0.47;;;16.30;99.90;;;;;;5075076;28;20246;-62
2022/07/02 05:37:38;;;;;;;0.50;0.50;;;16.50;99.90;;;;;;5074554;28;20257;-61
2022/07/02 05:40:07;;;;;;;0.60;0.60;;;16.60;99.90;;;;;;5076236;28;20195;-62
2022/07/02 05:42:34;;;;;;;0.50;0.50;;;16.80;99.90;;;;;;5074766;28;20276;-62
2022/07/02 05:45:01;;;;;;;0.60;0.60;;;17.00;99.90;;;;;;5074671;28;20314;-62
2022/07/02 05:47:28;;;;;;;0.80;0.80;;;17.20;99.90;;;;;;5074543;28;20271;-63
2022/07/02 05:49:56;;;;;;;0.50;0.50;;;17.40;99.90;;;;;;5074674;28;20222;-62
2022/07/02 05:52:22;;;;;;;0.67;0.67;;;17.60;99.90;;;;;;5074505;28;20203;-62
2022/07/02 05:54:49;;;;;;;0.70;0.70;;;17.90;99.90;;;;;;5098679;22;20210;-62
2022/07/02 05:57:18;;;;;;;0.53;0.53;;;18.10;99.90;;;;;;5086613;28;20620;-64
2022/07/02 05:59:44;;;;;;;0.60;0.60;;;18.30;99.90;;;;;;5082774;28;20234;-65
2022/07/02 06:02:11;;;;;;;0.60;0.60;;;18.50;99.90;;;;;;5083522;28;20656;-65
2022/07/02 06:04:38;;;;;;;0.80;0.80;;;18.70;99.90;;;;;;5089693;28;20334;-63
2022/07/02 06:09:50;;;;;;;0.60;0.60;;;19.00;99.90;;;;;;5056288;28;20625;-66
2022/07/02 06:12:18;;;;;;;0.60;0.60;;;19.10;99.90;;;;;;5062982;28;20652;-64
2022/07/02 06:14:45;;;;;;;1.07;0.70;;;19.10;99.90;;;;;;5058608;28;20204;-65
2022/07/02 06:17:11;;;;;;;1.17;0.60;;;19.30;99.90;;;;;;5061189;28;20670;-64
2022/07/02 06:19:39;;;;;;;0.60;0.60;;;19.30;99.90;;;;;;5062138;28;20231;-66
2022/07/02 06:22:06;;;;;;;0.50;0.50;;;19.40;99.90;;;;;;5059544;28;20304;-64
2022/07/02 06:24:33;;;;;;;0.60;0.60;;;19.40;99.90;;;;;;5058425;28;20200;-64
2022/07/02 06:27:00;;;;;;;1.35;0.70;;;19.50;99.90;;;;;;5061456;28;20218;-65
2022/07/02 06:29:28;;;;;;;0.40;0.40;;;19.60;99.90;;;;;;5060055;28;20261;-64
2022/07/02 06:31:55;;;;;;;0.70;0.70;;;19.70;99.90;;;;;;5062058;28;20658;-67
2022/07/02 06:34:22;;;;;;;0.60;0.60;;;19.80;99.90;;;;;;5059146;28;20673;-63
2022/07/02 06:36:49;;;;;;;0.67;0.67;;;19.90;99.90;;;;;;5061965;28;20416;-65
2022/07/02 06:39:16;;;;;;;3.20;0.70;;;20.00;99.90;;;;;;5057368;28;20212;-65
2022/07/02 06:44:28;;;;;;;0.57;0.52;;;20.10;99.90;;;;;;5061104;28;20230;-65
2022/07/02 06:46:55;;;;;;;0.68;0.63;;;20.00;99.90;;;;;;5058879;28;20267;-67
2022/07/02 06:49:22;;;;;;;0.52;0.52;;;19.90;99.90;;;;;;5052390;28;20307;-66
2022/07/02 06:51:49;;;;;;;0.70;0.70;;;19.80;99.90;;;;;;5060303;28;20211;-64
2022/07/02 06:54:16;;;;;;;0.97;0.77;;;19.70;99.90;;;;;;5064125;28;20262;-63
2022/07/02 06:56:43;;;;;;;0.50;0.50;;;19.70;99.90;;;;;;5064506;28;20725;-66
2022/07/02 06:59:10;;;;;;;0.60;0.60;;;19.80;99.90;;;;;;5062369;28;20227;-63
2022/07/02 07:01:38;;;;;;;0.57;0.57;;;19.90;99.90;;;;;;5062967;28;20290;-65
2022/07/02 07:04:05;;;;;;;0.75;0.70;;;20.00;99.90;;;;;;5065294;28;20211;-64
2022/07/02 07:06:33;;;;;;;0.70;0.70;;;20.10;99.90;;;;;;5069908;28;20255;-64
2022/07/02 07:09:00;;;;;;;0.82;0.82;;;20.30;99.90;;;;;;5058656;28;20230;-65
2022/07/02 07:11:27;;;;;;;0.50;0.50;;;20.30;99.90;;;;;;5057410;28;20245;-64
2022/07/02 07:13:53;;;;;;;0.75;0.75;;;20.40;99.90;;;;;;5062932;28;20282;-63
2022/07/02 07:16:20;;;;;;;0.63;0.63;;;20.40;99.90;;;;;;5053440;28;20346;-64
2022/07/02 07:18:50;;;;;;;0.52;0.50;;;20.50;99.90;;;;;;5060402;28;20222;-65
2022/07/02 07:21:17;;;;;;;0.60;0.60;;;20.60;99.90;;;;;;5070664;28;20670;-64
2022/07/02 07:23:44;;;;;;;0.60;0.60;;;20.70;99.90;;;;;;5067361;28;20207;-63
2022/07/02 07:26:11;;;;;;;0.60;0.60;;;20.80;99.90;;;;;;5063119;28;20313;-63
2022/07/02 07:28:38;;;;;;;1.27;0.75;;;20.80;99.90;;;;;;5063871;28;20224;-64
2022/07/02 07:31:05;;;;;;;0.57;0.57;;;20.90;99.90;;;;;;5063419;28;20298;-64
2022/07/02 07:33:32;;;;;;;0.68;0.68;;;21.00;99.90;;;;;;5061352;28;20287;-64
2022/07/02 07:36:00;;;;;;;0.50;0.50;;;21.20;99.90;;;;;;5060371;28;20218;-64
2022/07/02 07:38:28;;;;;;;0.50;0.50;;;21.20;99.90;;;;;;5068048;28;20227;-64
2022/07/02 07:40:55;;;;;;;0.52;0.52;;;21.30;99.90;;;;;;5059796;28;20576;-64
2022/07/02 07:43:22;;;;;;;0.70;0.70;;;21.30;99.90;;;;;;5053381;28;20286;-65
2022/07/02 07:45:49;;;;;;;0.68;0.68;;;21.50;99.90;;;;;;5055645;28;21891;-65
2022/07/02 07:48:15;;;;;;;0.60;0.60;;;21.50;99.90;;;;;;5068985;28;20218;-64
2022/07/02 07:50:42;;;;;;;0.80;0.80;;;21.50;99.90;;;;;;5070936;28;20242;-64
2022/07/02 07:53:11;;;;;;;0.55;0.55;;;21.70;99.90;;;;;;5059469;28;20287;-65
2022/07/02 07:55:38;;;;;;;0.70;0.70;;;21.60;99.90;;;;;;5058625;28;20258;-64
2022/07/02 07:58:05;;;;;;;0.90;0.90;;;21.60;99.90;;;;;;5062322;28;20697;-63
2022/07/02 08:00:32;;;;;;;0.80;0.80;;;21.60;99.90;;;;;;5055785;28;20268;-64
2022/07/02 08:02:59;;;;;;;0.70;0.70;;;21.60;99.90;;;;;;5063741;28;20282;-64
2022/07/02 08:05:26;;;;;;;0.97;0.70;;;21.70;99.90;;;;;;5066229;28;20231;-64
2022/07/02 08:07:53;;;;;;;0.95;0.95;;;21.80;99.90;;;;;;5064693;28;20209;-65
2022/07/02 08:10:21;;;;;;;0.52;0.52;;;21.90;99.90;;;;;;5070855;28;20670;-65
2022/07/02 08:12:48;;;;;;;0.55;0.55;;;21.90;99.90;;;;;;5065886;28;20204;-63
2022/07/02 08:15:15;;;;;;;0.80;0.80;;;22.10;99.90;;;;;;5068986;28;20219;-66
2022/07/02 08:17:42;;;;;;;0.67;0.67;;;22.10;99.90;;;;;;5067881;28;20203;-65
2022/07/02 08:20:11;;;;;;;0.70;0.70;;;22.20;99.90;;;;;;5067822;28;20668;-64
2022/07/02 08:22:38;;;;;;;0.47;0.47;;;22.40;99.90;;;;;;5072031;28;20216;-63
2022/07/02 08:25:07;;;;;;;0.60;0.60;;;22.60;99.90;;;;;;5064115;28;20706;-64
2022/07/02 08:27:35;;;;;;;0.60;0.60;;;22.60;99.90;;;;;;5070738;28;20254;-64
2022/07/02 08:30:02;;;;;;;0.50;0.50;;;22.60;99.90;;;;;;5070035;28;20657;-65
2022/07/02 08:32:30;;;;;;;0.45;0.45;;;22.70;99.90;;;;;;5064280;28;20200;-65
2022/07/02 08:34:58;;;;;;;0.50;0.50;;;22.90;99.90;;;;;;5074277;28;20630;-65
2022/07/02 08:37:26;;;;;;;0.70;0.70;;;23.00;99.90;;;;;;5066395;28;20733;-65
2022/07/02 08:39:53;;;;;;;0.70;0.70;;;23.10;99.90;;;;;;5072277;28;20197;-64
2022/07/02 08:42:25;;;;;;;0.70;0.70;;;23.30;99.90;;;;;;5067381;28;20291;-65
2022/07/02 08:44:56;;;;;;;0.70;0.70;;;23.40;99.90;;;;;;5065081;28;20227;-64
2022/07/02 08:47:25;;;;;;;0.70;0.70;;;23.40;99.90;;;;;;5068965;28;20286;-64
2022/07/02 08:49:54;;;;;;;0.60;0.60;;;23.50;99.90;;;;;;5072915;28;20739;-64
2022/07/02 08:52:23;;;;;;;0.60;0.60;;;23.60;99.90;;;;;;5070152;28;20196;-64
2022/07/02 08:54:50;;;;;;;0.55;0.55;;;23.60;99.90;;;;;;5067886;28;20208;-65
2022/07/02 08:57:18;;;;;;;0.70;0.70;;;23.50;99.90;;;;;;5066433;28;20199;-64
2022/07/02 08:59:45;;;;;;;0.75;0.75;;;23.50;99.90;;;;;;5058960;28;20200;-64
2022/07/02 09:02:14;;;;;;;0.75;0.75;;;23.60;99.90;;;;;;5065376;28;20280;-65
2022/07/02 09:04:45;;;;;;;0.68;0.68;;;23.80;99.90;;;;;;5069333;28;20310;-63
2022/07/02 09:07:15;;;;;;;0.70;0.70;;;23.70;99.90;;;;;;5070601;28;20265;-63
2022/07/02 09:09:45;;;;;;;0.80;0.80;;;23.90;99.90;;;;;;5077531;28;20258;-63
2022/07/02 09:12:14;;;;;;;0.70;0.70;;;24.00;99.90;;;;;;5073154;28;20203;-65
2022/07/02 09:14:42;;;;;;;0.63;0.63;;;24.00;99.90;;;;;;5066448;28;20204;-64
2022/07/02 09:17:11;;;;;;;0.70;0.70;;;24.10;99.90;;;;;;5069641;28;20665;-65
2022/07/02 09:19:40;;;;;;;0.60;0.60;;;24.30;99.90;;;;;;5068031;28;20207;-65
2022/07/02 09:22:08;;;;;;;0.60;0.60;;;24.40;99.90;;;;;;5066761;28;20200;-63
2022/07/02 09:24:37;;;;;;;0.50;0.50;;;24.40;99.90;;;;;;5069606;28;20203;-64
2022/07/02 09:27:06;;;;;;;0.70;0.70;;;24.60;99.90;;;;;;5071695;28;20518;-64
2022/07/02 09:29:42;;;;;;;0.52;0.52;;;24.70;99.90;;;;;;5067119;28;20216;-63
2022/07/02 09:32:09;;;;;;;0.50;0.50;;;24.90;99.90;;;;;;5069714;28;20206;-63
2022/07/02 09:34:41;;;;;;;0.67;0.67;;;25.00;99.90;;;;;;5072990;28;20294;-64
2022/07/02 09:37:15;;;;;;;0.40;0.40;;;25.10;99.90;;;;;;5068853;28;20257;-64
2022/07/02 09:39:43;;;;;;;0.60;0.60;;;25.10;99.90;;;;;;5065508;28;20210;-66
2022/07/02 09:42:10;;;;;;;0.43;0.43;;;25.00;99.90;;;;;;5070528;28;20254;-65
2022/07/02 09:44:46;;;;;;;0.52;0.52;;;25.20;99.90;;;;;;5069838;28;20229;-63
2022/07/02 09:47:13;;;;;;;0.60;0.60;;;25.20;99.90;;;;;;5068236;28;20226;-62
2022/07/02 09:49:47;;;;;;;0.68;0.68;;;25.40;99.90;;;;;;5070616;28;20293;-64
2022/07/02 09:52:17;;;;;;;0.55;0.55;;;25.50;99.90;;;;;;5071623;28;20616;-64
2022/07/02 09:54:45;;;;;;;0.50;0.50;;;25.70;99.90;;;;;;5060680;28;20204;-63
2022/07/02 09:57:14;;;;;;;0.52;0.52;;;25.80;99.90;;;;;;5068400;28;20203;-64
2022/07/02 09:59:41;;;;;;;0.55;0.55;;;26.00;99.90;;;;;;5069264;28;20653;-63
2022/07/02 10:02:23;;;;;;;0.55;0.55;;;26.20;99.90;;;;;;5065386;28;20295;-63
2022/07/02 10:04:52;;;;;;;1.05;0.60;;;26.10;99.90;;;;;;5069961;28;20203;-63
2022/07/02 10:07:22;;;;;;;0.52;0.52;;;26.00;99.90;;;;;;5066319;28;20211;-63
2022/07/02 10:09:49;;;;;;;0.68;0.45;;;26.00;99.90;;;;;;5068668;28;20218;-62
2022/07/02 10:12:17;;;;;;;0.40;0.40;;;26.20;99.90;;;;;;5069968;28;20226;-63
2022/07/02 10:14:45;;;;;;;0.40;0.40;;;26.40;99.90;;;;;;5068153;28;20612;-63
2022/07/02 10:17:13;;;;;;;0.40;0.40;;;26.50;99.90;;;;;;5067273;28;20223;-62
2022/07/02 10:19:41;;;;;;;0.30;0.30;;;26.40;99.90;;;;;;5066368;28;20231;-63
2022/07/02 10:22:08;;;;;;;0.40;0.40;;;26.30;99.90;;;;;;5068999;28;20207;-64
2022/07/02 10:24:37;;;;;;;0.40;0.40;;;26.50;99.90;;;;;;5071036;28;20290;-62
2022/07/02 10:27:04;;;;;;;0.55;0.50;;;26.80;99.90;;;;;;5069213;28;20196;-63
2022/07/02 10:29:31;;;;;;;0.40;0.40;;;27.00;99.90;;;;;;5069106;28;20306;-62
2022/07/02 10:32:07;;;;;;;0.50;0.50;;;27.10;99.90;;;;;;5071750;28;20256;-62
2022/07/02 10:34:52;;;;;;;0.63;0.63;;;27.10;99.90;;;;;;5066478;28;20677;-63
2022/07/02 10:37:19;;;;;;;0.40;0.40;;;27.10;99.90;;;;;;5057558;28;20195;-64
2022/07/02 10:39:47;;;;;;;0.40;0.40;;;27.30;99.90;;;;;;5066758;28;20728;-63
2022/07/02 10:42:14;;;;;;;0.38;0.38;;;27.40;99.90;;;;;;5072156;28;20204;-62
2022/07/02 10:44:42;;;;;;;0.43;0.40;;;27.50;99.90;;;;;;5066393;28;20827;-63
2022/07/02 10:47:18;;;;;;;0.40;0.40;;;27.50;99.90;;;;;;5065276;28;20619;-62
2022/07/02 10:49:45;;;;;;;0.50;0.50;;;27.60;99.90;;;;;;5066585;28;20219;-62
2022/07/02 10:52:12;;;;;;;0.40;0.40;;;27.60;99.90;;;;;;5066241;28;20314;-62
2022/07/02 10:54:45;;;;;;;0.40;0.40;;;27.70;99.90;;;;;;5069680;28;20577;-62
2022/07/02 10:57:19;;;;;;;0.40;0.40;;;27.70;99.90;;;;;;5075142;28;20203;-63
2022/07/02 10:59:46;;;;;;;0.40;0.40;;;27.80;99.90;;;;;;5063709;28;20195;-63
2022/07/02 11:02:17;;;;;;;0.50;0.50;;;27.80;99.90;;;;;;5068956;28;20627;-62
2022/07/02 11:04:43;;;;;;;0.38;0.38;;;28.00;99.90;;;;;;5061377;28;20200;-61
2022/07/02 11:07:13;;;;;;;0.55;0.55;;;28.00;99.90;;;;;;5066162;28;20231;-64
2022/07/02 11:09:48;;;;;;;0.30;0.30;;;28.20;99.90;;;;;;5070070;28;20245;-62
2022/07/02 11:12:21;;;;;;;0.30;0.30;;;28.30;99.90;;;;;;5069230;28;20205;-63
2022/07/02 11:14:55;;;;;;;0.50;0.50;;;28.30;99.90;;;;;;5069280;28;20208;-64
2022/07/02 11:17:24;;;;;;;0.45;0.45;;;28.30;99.90;;;;;;5063473;28;20207;-63
2022/07/02 11:19:55;;;;;;;0.40;0.40;;;28.30;99.90;;;;;;5062153;28;20219;-63
2022/07/02 11:22:22;;;;;;;0.30;0.30;;;28.10;99.90;;;;;;5065590;28;20299;-64
2022/07/02 11:24:54;;;;;;;0.43;0.43;;;28.00;99.90;;;;;;5063566;28;20662;-62
2022/07/02 11:27:22;;;;;;;0.38;0.38;;;28.10;99.90;;;;;;5064999;28;20200;-63
2022/07/02 11:29:54;;;;;;;0.40;0.40;;;28.00;99.90;;;;;;5061602;28;20612;-63
2022/07/02 11:32:21;;;;;;;0.50;0.50;;;27.80;99.90;;;;;;5064211;28;20209;-63
2022/07/02 11:34:59;;;;;;;0.82;0.47;;;27.90;99.90;;;;;;5069392;28;20634;-63
2022/07/02 11:37:28;;;;;;;0.50;0.50;;;28.10;99.90;;;;;;5064656;28;20191;-61
2022/07/02 11:39:57;;;;;;;0.30;0.30;;;28.20;99.90;;;;;;5063392;28;20208;-63
2022/07/02 11:42:38;;;;;;;0.38;0.38;;;28.30;99.90;;;;;;5070902;28;20191;-64
2022/07/02 11:45:07;;;;;;;0.30;0.30;;;28.40;99.90;;;;;;5070675;28;20629;-65
2022/07/02 11:47:44;;;;;;;0.57;0.57;;;28.40;99.90;;;;;;5070271;28;20615;-65
2022/07/02 11:50:13;;;;;;;0.30;0.30;;;28.50;99.90;;;;;;5071538;28;20211;-65
2022/07/02 11:52:42;;;;;;;0.28;0.28;;;28.60;99.90;;;;;;5069706;28;20195;-65
2022/07/02 11:55:17;;;;;;;0.38;0.38;;;28.70;99.90;;;;;;5067573;28;20228;-62
2022/07/02 11:57:46;;;;;;;0.50;0.50;;;28.70;99.90;;;;;;5061896;28;20669;-64
2022/07/02 12:00:15;;;;;;;0.40;0.40;;;28.70;99.90;;;;;;5072866;28;20196;-65
2022/07/02 12:02:44;;;;;;;0.30;0.30;;;28.70;99.90;;;;;;5067859;28;20208;-64
2022/07/02 12:05:16;;;;;;;0.60;0.40;;;28.80;99.90;;;;;;5069923;28;20301;-63
2022/07/02 12:07:44;;;;;;;0.47;0.47;;;28.80;99.90;;;;;;5069044;28;20214;-63
2022/07/02 12:10:13;;;;;;;0.40;0.40;;;29.00;99.90;;;;;;5063604;28;20246;-63
2022/07/02 12:12:41;;;;;;;0.45;0.45;;;29.00;99.90;;;;;;5062524;28;20211;-63
2022/07/02 12:15:11;;;;;;;0.30;0.30;;;29.10;99.90;;;;;;5065950;28;20246;-64
2022/07/02 12:17:47;;;;;;;0.40;0.40;;;29.00;99.90;;;;;;5060869;28;20666;-66
2022/07/02 12:20:14;;;;;;;0.40;0.40;;;28.80;99.90;;;;;;5067371;28;20201;-64
2022/07/02 12:22:41;;;;;;;0.63;0.55;;;29.00;99.90;;;;;;5063120;28;20294;-66
2022/07/02 12:25:08;;;;;;;0.82;0.50;;;28.90;99.90;;;;;;5063300;28;20220;-65
2022/07/02 12:27:37;;;;;;;0.40;0.40;;;28.80;99.90;;;;;;5057746;28;20713;-64
2022/07/02 12:30:13;;;;;;;0.50;0.50;;;28.90;99.90;;;;;;5060171;28;20656;-64
2022/07/02 12:32:40;;;;;;;0.60;0.60;;;28.80;99.90;;;;;;5058191;28;20306;-64
2022/07/02 12:35:10;;;;;;;0.38;0.38;;;28.80;99.90;;;;;;5063593;28;20230;-64
2022/07/02 12:37:39;;;;;;;0.55;0.55;;;28.80;99.90;;;;;;5067109;28;20605;-65
2022/07/02 12:40:09;;;;;;;0.40;0.40;;;28.80;99.90;;;;;;5060747;28;20234;-63
2022/07/02 12:42:46;;;;;;;0.40;0.40;;;28.60;99.90;;;;;;5065821;28;20212;-64
2022/07/02 12:45:25;;;;;;;0.47;0.47;;;28.70;99.90;;;;;;5064805;28;20215;-63
2022/07/02 12:47:58;;;;;;;0.50;0.50;;;28.60;99.90;;;;;;5064684;28;20818;-63
2022/07/02 12:50:26;;;;;;;0.40;0.40;;;28.70;99.90;;;;;;5066678;28;20214;-64
2022/07/02 12:52:55;;;;;;;0.43;0.43;;;28.70;99.90;;;;;;5066505;28;20294;-62
2022/07/02 12:55:26;;;;;;;0.50;0.50;;;28.70;99.90;;;;;;5060787;28;20246;-64
2022/07/02 12:57:55;;;;;;;0.40;0.40;;;28.70;99.90;;;;;;5068906;28;20205;-64
2022/07/02 13:00:24;;;;;;;0.47;0.47;;;28.80;99.90;;;;;;5062637;28;20195;-64